首页
METAR-TAF:

METAR-TAF

机场 :

香港國際機場

香港, 中华人民共和国

纬度: 22-19N, 经度: 113-55E, 海拔: 9米

当前天气观测

该预报发布于35分钟前的03:00 UTC
风速7节,风向西北
温度 30°C
湿度 75%
气压 1003 hPa
能见度10公里或以上
少量云层高于1000英尺

METAR: VHHH 280300Z 32007KT 9999 FEW010 30/25 Q1003 NOSIG

时间: 11:35 (03:35 UTC)

预报

该预报发布于1小时和35分钟前的02:00 UTC
预报有效从28日的 03点(UTC)到 29日的 09点(UTC)
风速10节,风向西转西北
能见度10公里或以上
少量云层高于1500英尺
散云层高于2500英尺
短暂存在
从 28日的 03点(UTC)到 28日的 06点(UTC)
能見度: 4000
少量云层高于1000英尺, 积雨云.
散云层高于2000英尺
阵雨
短暂存在
从 28日的 06点(UTC)到 28日的 09点(UTC)
风速15节,风向多变,有时为25节阵风
能見度: 3500
少量云层高于1000英尺, 积雨云.
散云层高于2000英尺
雷暴, 雨, 阵雨
成为
从 28日的 12点(UTC)到 28日的 14点(UTC)
风速15节,风向
短暂存在
从 28日的 12点(UTC)到 28日的 16点(UTC)
能見度: 4000
少量云层高于1000英尺, 积雨云.
散云层高于2000英尺
阵雨,

TAF: VHHH 280200Z 2803/2909 30010KT 9999 FEW015 SCT025 TX31/2806Z TX28/2906Z TN25/2822Z TEMPO 2803/2806 4000 SHRA FEW010CB SCT020 TEMPO 2806/2809 VRB15G25KT 3500 TSRA SHRA FEW010CB SCT020 BECMG 2812/2814 09015KT TEMPO 2812/2816 4000 SHRA FEW010CB SCT020

超过4000个机场的气象观测和天气预报(METAR&TAF报告)。

可查询的气象台以黄色和红色小点在地图上表示。

将鼠标移到小点上方,可查看气象台名称。

然后点击查看天气观测和预报。

如需切换地图:点击带黑十字的绿色按钮放大地图;点击带横线的绿色按钮缩小地图;或者点击绿色箭头查看邻近地区的地图。


METAR-TAF: